createdAt,value
2023-04-08T00:02:26.592Z,100.00
2023-04-08T00:04:59.599Z,100.00
2023-04-08T00:07:32.424Z,100.00
2023-04-08T00:10:06.995Z,100.00
2023-04-08T00:12:39.813Z,100.00
2023-04-08T00:15:14.187Z,100.00
2023-04-08T00:17:47.201Z,100.00
2023-04-08T00:20:20.016Z,100.00
2023-04-08T00:22:52.823Z,100.00
2023-04-08T00:25:25.968Z,100.00
2023-04-08T00:27:58.976Z,100.00
2023-04-08T00:30:34.059Z,100.00
2023-04-08T00:33:09.078Z,100.00
2023-04-08T00:35:42.054Z,100.00
2023-04-08T00:38:14.887Z,100.00
2023-04-08T00:40:47.913Z,100.00
2023-04-08T00:43:21.984Z,100.00
2023-04-08T00:45:56.576Z,100.00
2023-04-08T00:48:31.373Z,100.00
2023-04-08T00:51:04.873Z,100.00
2023-04-08T00:53:37.807Z,99.89
2023-04-08T00:56:10.719Z,98.81
2023-04-08T00:58:43.879Z,98.35
2023-04-08T01:01:27.494Z,97.87
2023-04-08T01:04:07.604Z,97.55
2023-04-08T01:06:47.060Z,97.44
2023-04-08T01:09:24.664Z,97.12
2023-04-08T01:11:59.625Z,97.45
2023-04-08T01:14:36.438Z,97.94
2023-04-08T01:17:11.790Z,100.00
2023-04-08T01:19:47.838Z,100.00
2023-04-08T01:22:29.213Z,100.00
2023-04-08T01:25:08.143Z,100.00
2023-04-08T01:27:44.028Z,100.00
2023-04-08T01:30:19.916Z,100.00
2023-04-08T01:32:55.701Z,100.00
2023-04-08T01:35:29.577Z,100.00
2023-04-08T01:38:04.792Z,100.00
2023-04-08T01:40:40.741Z,100.00
2023-04-08T01:43:17.523Z,100.00
2023-04-08T01:45:54.481Z,100.00
2023-04-08T01:48:29.345Z,100.00
2023-04-08T01:51:05.368Z,100.00
2023-04-08T01:53:38.728Z,100.00
2023-04-08T01:56:14.399Z,100.00
2023-04-08T01:58:53.198Z,100.00
2023-04-08T02:01:28.381Z,100.00
2023-04-08T02:04:03.129Z,100.00
2023-04-08T02:06:36.640Z,100.00
2023-04-08T02:09:09.692Z,100.00
2023-04-08T02:11:43.500Z,100.00
2023-04-08T02:14:17.842Z,100.00
2023-04-08T02:16:54.941Z,100.00
2023-04-08T02:19:31.225Z,100.00
2023-04-08T02:22:10.385Z,100.00
2023-04-08T02:24:45.342Z,100.00
2023-04-08T02:27:19.984Z,100.00
2023-04-08T02:29:58.859Z,100.00
2023-04-08T02:32:33.785Z,100.00
2023-04-08T02:35:08.550Z,100.00
2023-04-08T02:37:41.746Z,100.00
2023-04-08T02:40:37.048Z,100.00
2023-04-08T02:43:10.125Z,100.00
2023-04-08T02:45:45.437Z,100.00
2023-04-08T02:48:18.302Z,100.00
2023-04-08T02:50:51.120Z,100.00
2023-04-08T02:53:24.639Z,100.00
2023-04-08T02:55:57.492Z,100.00
2023-04-08T02:58:30.609Z,100.00
2023-04-08T03:01:04.848Z,100.00
2023-04-08T03:03:37.889Z,100.00
2023-04-08T03:06:10.715Z,100.00
2023-04-08T03:08:43.792Z,100.00
2023-04-08T03:11:16.665Z,100.00
2023-04-08T03:13:50.099Z,100.00
2023-04-08T03:16:24.704Z,100.00
2023-04-08T03:18:58.629Z,100.00
2023-04-08T03:21:32.392Z,100.00
2023-04-08T03:24:05.710Z,100.00
2023-04-08T03:26:38.465Z,100.00
2023-04-08T03:29:11.249Z,100.00
2023-04-08T03:31:45.890Z,99.62
2023-04-08T03:34:19.045Z,99.00
2023-04-08T03:36:51.948Z,97.80
2023-04-08T03:39:24.799Z,97.16
2023-04-08T03:41:59.848Z,97.09
2023-04-08T03:44:32.620Z,96.91
2023-04-08T03:47:07.320Z,96.95
2023-04-08T03:49:40.574Z,97.14
2023-04-08T03:52:13.452Z,96.93
2023-04-08T03:54:46.229Z,97.02
2023-04-08T03:57:19.162Z,98.62
2023-04-08T03:59:51.996Z,97.92
2023-04-08T04:02:26.638Z,98.27
2023-04-08T04:04:59.737Z,99.35
2023-04-08T04:07:32.684Z,99.47
2023-04-08T04:10:06.558Z,99.70
2023-04-08T04:12:39.546Z,98.52
2023-04-08T04:15:13.333Z,97.68
2023-04-08T04:17:49.158Z,97.16
2023-04-08T04:20:22.527Z,96.56
2023-04-08T04:22:55.339Z,96.39
2023-04-08T04:25:28.696Z,96.34
2023-04-08T04:28:01.993Z,96.73
2023-04-08T04:30:34.887Z,95.63
2023-04-08T04:33:09.272Z,95.03
2023-04-08T04:35:42.073Z,95.34
2023-04-08T04:38:15.157Z,95.85
2023-04-08T04:40:48.085Z,96.07
2023-04-08T04:43:20.995Z,96.31
2023-04-08T04:45:53.776Z,96.18
2023-04-08T04:48:28.054Z,96.95
2023-04-08T04:51:03.193Z,97.28
2023-04-08T04:53:36.122Z,98.64
2023-04-08T04:56:09.100Z,99.14
2023-04-08T04:58:42.332Z,100.00
2023-04-08T05:01:15.830Z,100.00
2023-04-08T05:03:50.313Z,100.00
2023-04-08T05:06:24.858Z,100.00
2023-04-08T05:08:57.840Z,100.00
2023-04-08T05:11:30.961Z,100.00
2023-04-08T05:14:03.820Z,100.00
2023-04-08T05:16:36.912Z,100.00
2023-04-08T05:19:13.616Z,100.00
2023-04-08T05:21:46.389Z,100.00
2023-04-08T05:24:19.266Z,100.00
2023-04-08T05:26:53.377Z,100.00
2023-04-08T05:29:26.665Z,100.00
2023-04-08T05:32:00.577Z,100.00
2023-04-08T05:34:34.897Z,100.00
2023-04-08T05:37:08.054Z,100.00
2023-04-08T05:39:40.888Z,100.00
2023-04-08T05:42:14.282Z,100.00
2023-04-08T05:44:47.094Z,100.00
2023-04-08T05:47:19.913Z,100.00
2023-04-08T05:49:54.405Z,100.00
2023-04-08T05:52:27.240Z,100.00
2023-04-08T05:55:00.540Z,100.00
2023-04-08T05:57:33.837Z,100.00
2023-04-08T06:00:09.478Z,100.00
2023-04-08T06:02:43.360Z,100.00
2023-04-08T06:05:19.316Z,100.00
2023-04-08T06:07:52.273Z,100.00
2023-04-08T06:10:25.177Z,100.00
2023-04-08T06:12:57.956Z,100.00
2023-04-08T06:15:31.160Z,100.00
2023-04-08T06:18:04.513Z,100.00
2023-04-08T06:20:38.887Z,100.00
2023-04-08T06:23:11.804Z,99.34
2023-04-08T06:25:44.577Z,99.13
2023-04-08T06:28:17.598Z,99.06
2023-04-08T06:30:50.352Z,99.05
2023-04-08T06:33:23.349Z,99.63
2023-04-08T06:36:04.757Z,99.98
2023-04-08T06:38:37.544Z,99.66
2023-04-08T06:41:10.354Z,99.33
2023-04-08T06:43:43.172Z,99.94
2023-04-08T06:46:16.176Z,97.66
2023-04-08T06:48:49.359Z,95.63
2023-04-08T06:51:24.394Z,92.82
2023-04-08T06:53:57.510Z,90.63
2023-04-08T06:56:30.441Z,89.29
2023-04-08T06:59:03.231Z,88.35
2023-04-08T07:01:36.076Z,89.36
2023-04-08T07:04:09.041Z,88.32
2023-04-08T07:06:43.312Z,87.64
2023-04-08T07:09:16.203Z,86.81
2023-04-08T07:11:49.478Z,86.53
2023-04-08T07:14:22.360Z,86.08
2023-04-08T07:16:55.420Z,85.34
2023-04-08T07:19:28.420Z,84.88
2023-04-08T07:22:02.975Z,85.28
2023-04-08T07:24:36.333Z,83.73
2023-04-08T07:27:09.766Z,83.89
2023-04-08T07:29:42.610Z,83.32
2023-04-08T07:32:16.169Z,84.84
2023-04-08T07:34:49.216Z,83.96
2023-04-08T07:37:23.599Z,83.06
2023-04-08T07:39:56.783Z,83.05
2023-04-08T07:42:29.640Z,83.26
2023-04-08T07:45:02.544Z,84.48
2023-04-08T07:47:35.682Z,85.50
2023-04-08T07:50:09.296Z,86.19
2023-04-08T07:52:43.702Z,84.89
2023-04-08T07:55:16.649Z,84.84
2023-04-08T07:57:49.820Z,84.01
2023-04-08T08:00:23.308Z,83.81
2023-04-08T08:02:56.374Z,82.57
2023-04-08T08:05:29.656Z,83.96
2023-04-08T08:08:04.019Z,83.90
2023-04-08T08:10:37.052Z,83.37
2023-04-08T08:13:10.081Z,83.91
2023-04-08T08:15:43.715Z,83.20
2023-04-08T08:18:16.767Z,83.09
2023-04-08T08:20:49.756Z,83.19
2023-04-08T08:23:24.593Z,83.31
2023-04-08T08:26:01.083Z,82.13
2023-04-08T08:28:34.367Z,82.32
2023-04-08T08:31:07.495Z,81.61
2023-04-08T08:33:40.663Z,82.31
2023-04-08T08:36:13.660Z,82.49
2023-04-08T08:38:47.843Z,82.56
2023-04-08T08:41:20.686Z,82.70
2023-04-08T08:43:55.036Z,82.84
2023-04-08T08:46:27.971Z,84.49
2023-04-08T08:49:01.190Z,84.39
2023-04-08T08:51:35.014Z,83.51
2023-04-08T08:54:09.674Z,84.10
2023-04-08T08:56:43.454Z,84.16
2023-04-08T08:59:16.355Z,83.18
2023-04-08T09:01:49.272Z,82.66
2023-04-08T09:04:23.078Z,83.58
2023-04-08T09:07:10.483Z,82.38
2023-04-08T09:09:52.560Z,83.32
2023-04-08T09:12:27.331Z,83.38
2023-04-08T09:15:07.233Z,82.49
2023-04-08T09:17:41.914Z,81.95
2023-04-08T09:20:15.636Z,82.04
2023-04-08T09:22:59.225Z,82.21
2023-04-08T09:25:34.664Z,79.52
2023-04-08T09:28:20.339Z,76.95
2023-04-08T09:30:53.140Z,77.60
2023-04-08T09:33:31.805Z,77.22
2023-04-08T09:36:05.264Z,78.99
2023-04-08T09:38:38.138Z,78.38
2023-04-08T09:41:15.621Z,75.63
2023-04-08T09:43:50.543Z,76.39
2023-04-08T09:46:28.749Z,74.18
2023-04-08T09:49:07.445Z,76.12
2023-04-08T09:51:46.497Z,74.55
2023-04-08T09:54:23.982Z,74.48
2023-04-08T09:57:05.611Z,73.70
2023-04-08T09:59:42.984Z,72.31
2023-04-08T10:02:21.072Z,73.25
2023-04-08T10:04:58.768Z,74.48
2023-04-08T10:07:31.686Z,73.23
2023-04-08T10:10:05.831Z,74.03
2023-04-08T10:12:40.704Z,73.70
2023-04-08T10:15:27.605Z,71.52
2023-04-08T10:18:34.394Z,71.66
2023-04-08T10:21:33.791Z,73.38
2023-04-08T10:24:11.795Z,74.09
2023-04-08T10:26:46.557Z,73.61
2023-04-08T10:29:44.222Z,71.19
2023-04-08T10:32:30.314Z,70.68
2023-04-08T10:35:04.341Z,71.64
2023-04-08T10:37:37.122Z,72.66
2023-04-08T10:40:20.603Z,74.44
2023-04-08T10:42:55.934Z,72.32
2023-04-08T10:45:30.702Z,73.28
2023-04-08T10:48:18.451Z,73.55
2023-04-08T10:50:55.907Z,73.49
2023-04-08T10:53:30.188Z,73.37
2023-04-08T10:56:07.404Z,74.50
2023-04-08T10:58:49.537Z,74.84
2023-04-08T11:01:24.461Z,73.52
2023-04-08T11:03:57.863Z,73.37
2023-04-08T11:06:30.851Z,73.16
2023-04-08T11:09:05.698Z,74.74
2023-04-08T11:11:39.194Z,73.55
2023-04-08T11:14:12.385Z,73.03
2023-04-08T11:16:47.692Z,74.29
2023-04-08T11:19:21.517Z,73.44
2023-04-08T11:21:54.631Z,74.10
2023-04-08T11:24:28.451Z,74.67
2023-04-08T11:27:02.965Z,73.75
2023-04-08T11:29:36.431Z,74.59
2023-04-08T11:32:10.952Z,72.56
2023-04-08T11:34:44.652Z,73.43
2023-04-08T11:37:17.519Z,72.80
2023-04-08T11:39:50.401Z,72.53
2023-04-08T11:42:33.912Z,72.45
2023-04-08T11:45:13.077Z,71.91
2023-04-08T11:47:48.293Z,71.19
2023-04-08T11:50:25.861Z,69.74
2023-04-08T11:53:00.063Z,71.62
2023-04-08T11:55:34.298Z,71.32
2023-04-08T11:58:07.905Z,69.74
2023-04-08T12:00:40.975Z,70.59
2023-04-08T12:03:15.908Z,72.26
2023-04-08T12:05:49.230Z,71.36
2023-04-08T12:08:22.817Z,72.90
2023-04-08T12:10:55.882Z,72.54
2023-04-08T12:13:29.034Z,72.90
2023-04-08T12:16:01.895Z,72.93
2023-04-08T12:18:36.819Z,74.02
2023-04-08T12:21:09.579Z,70.77
2023-04-08T12:23:42.897Z,71.08
2023-04-08T12:26:15.767Z,74.07
2023-04-08T12:28:48.662Z,73.95
2023-04-08T12:31:22.768Z,74.77
2023-04-08T12:33:57.475Z,74.58
2023-04-08T12:36:31.932Z,75.21
2023-04-08T12:39:06.134Z,75.46
2023-04-08T12:41:39.383Z,76.26
2023-04-08T12:44:12.167Z,75.87
2023-04-08T12:46:45.069Z,75.09
2023-04-08T12:49:19.403Z,74.81
2023-04-08T12:51:52.850Z,76.46
2023-04-08T12:54:25.908Z,75.64
2023-04-08T12:56:58.605Z,75.67
2023-04-08T12:59:32.222Z,75.17
2023-04-08T13:02:05.174Z,75.61
2023-04-08T13:04:39.963Z,77.05
2023-04-08T13:07:12.744Z,75.90
2023-04-08T13:09:45.906Z,74.03
2023-04-08T13:12:18.707Z,74.16
2023-04-08T13:14:51.693Z,74.33
2023-04-08T13:17:24.698Z,73.95
2023-04-08T13:19:59.033Z,74.34
2023-04-08T13:22:33.638Z,72.78
2023-04-08T13:25:07.423Z,74.07
2023-04-08T13:27:40.760Z,73.79
2023-04-08T13:30:14.257Z,75.06
2023-04-08T13:32:47.332Z,74.67
2023-04-08T13:35:21.824Z,74.27
2023-04-08T13:37:55.363Z,73.25
2023-04-08T13:40:28.324Z,72.79
2023-04-08T13:43:01.747Z,72.05
2023-04-08T13:45:34.535Z,73.24
2023-04-08T13:48:10.934Z,73.32
2023-04-08T13:50:45.161Z,73.38
2023-04-08T13:53:18.089Z,74.12
2023-04-08T13:55:55.072Z,74.49
2023-04-08T13:58:28.017Z,74.55
2023-04-08T14:01:01.039Z,74.19
2023-04-08T14:03:34.014Z,73.55
2023-04-08T14:06:08.628Z,71.81
2023-04-08T14:08:41.542Z,73.85
2023-04-08T14:11:14.338Z,72.59
2023-04-08T14:13:47.418Z,71.65
2023-04-08T14:16:20.429Z,72.87
2023-04-08T14:18:53.662Z,73.61
2023-04-08T14:21:28.189Z,73.69
2023-04-08T14:24:02.634Z,72.33
2023-04-08T14:26:36.019Z,73.63
2023-04-08T14:29:09.037Z,72.16
2023-04-08T14:31:42.142Z,70.83
2023-04-08T14:34:16.062Z,72.09
2023-04-08T14:36:50.252Z,71.51
2023-04-08T14:39:23.564Z,71.36
2023-04-08T14:41:57.376Z,69.30
2023-04-08T14:44:30.190Z,69.64
2023-04-08T14:47:03.886Z,69.28
2023-04-08T14:49:36.720Z,69.99
2023-04-08T14:52:11.112Z,70.24
2023-04-08T14:54:45.432Z,70.90
2023-04-08T14:57:18.425Z,71.25
2023-04-08T14:59:51.390Z,70.83
2023-04-08T15:02:24.539Z,70.42
2023-04-08T15:04:58.230Z,69.91
2023-04-08T15:07:32.698Z,69.54
2023-04-08T15:10:05.977Z,68.07
2023-04-08T15:12:38.965Z,69.81
2023-04-08T15:15:12.517Z,70.33
2023-04-08T15:17:45.428Z,69.22
2023-04-08T15:20:19.032Z,69.72
2023-04-08T15:22:53.751Z,70.17
2023-04-08T15:25:26.630Z,70.48
2023-04-08T15:27:59.656Z,69.19
2023-04-08T15:30:35.385Z,69.43
2023-04-08T15:33:08.457Z,68.76
2023-04-08T15:35:41.691Z,68.29
2023-04-08T15:38:16.214Z,69.83
2023-04-08T15:40:49.014Z,70.72
2023-04-08T15:43:22.476Z,70.50
2023-04-08T15:45:55.583Z,70.26
2023-04-08T15:48:28.345Z,69.10
2023-04-08T15:51:08.228Z,69.70
2023-04-08T15:53:42.723Z,69.85
2023-04-08T15:56:18.073Z,70.03
2023-04-08T15:58:51.391Z,69.65
2023-04-08T16:01:24.367Z,70.45
2023-04-08T16:03:57.298Z,70.66
2023-04-08T16:06:30.318Z,70.13
2023-04-08T16:09:04.647Z,70.50
2023-04-08T16:11:37.779Z,70.63
2023-04-08T16:14:11.215Z,70.88
2023-04-08T16:16:44.298Z,70.50
2023-04-08T16:19:17.572Z,70.77
2023-04-08T16:21:50.989Z,70.14
2023-04-08T16:24:25.090Z,71.24
2023-04-08T16:26:58.765Z,71.85
2023-04-08T16:29:32.581Z,71.10
2023-04-08T16:32:05.548Z,71.61
2023-04-08T16:34:38.423Z,71.35
2023-04-08T16:37:12.257Z,71.09
2023-04-08T16:39:47.559Z,71.36
2023-04-08T16:42:20.649Z,71.29
2023-04-08T16:44:56.975Z,70.59
2023-04-08T16:47:29.937Z,70.12
2023-04-08T16:50:03.324Z,69.87
2023-04-08T16:52:39.926Z,69.94
2023-04-08T16:55:14.644Z,70.36
2023-04-08T16:57:47.604Z,69.49
2023-04-08T17:00:21.216Z,69.93
2023-04-08T17:02:56.876Z,70.85
2023-04-08T17:05:29.993Z,70.80
2023-04-08T17:08:02.843Z,70.75
2023-04-08T17:10:37.140Z,70.68
2023-04-08T17:13:10.837Z,70.66
2023-04-08T17:15:44.682Z,71.44
2023-04-08T17:18:17.602Z,71.62
2023-04-08T17:20:50.430Z,71.70
2023-04-08T17:23:23.955Z,72.05
2023-04-08T17:25:59.804Z,72.16
2023-04-08T17:28:32.966Z,72.88
2023-04-08T17:31:05.951Z,72.93
2023-04-08T17:33:38.893Z,72.22
2023-04-08T17:36:12.066Z,72.38
2023-04-08T17:38:47.145Z,72.11
2023-04-08T17:41:38.462Z,72.87
2023-04-08T17:44:12.190Z,72.85
2023-04-08T17:46:45.173Z,73.00
2023-04-08T17:49:18.553Z,73.39
2023-04-08T17:51:52.131Z,74.05
2023-04-08T17:54:25.715Z,73.32
2023-04-08T17:56:59.826Z,73.52
2023-04-08T17:59:32.621Z,73.29
2023-04-08T18:02:06.181Z,73.66
2023-04-08T18:04:39.180Z,74.72
2023-04-08T18:07:12.160Z,74.45
2023-04-08T18:09:46.401Z,73.89
2023-04-08T18:12:21.495Z,73.95
2023-04-08T18:14:54.432Z,73.60
2023-04-08T18:17:27.683Z,75.10
2023-04-08T18:20:00.628Z,74.70
2023-04-08T18:22:36.639Z,74.92
2023-04-08T18:25:10.435Z,75.96
2023-04-08T18:27:44.692Z,75.04
2023-04-08T18:30:17.489Z,74.72
2023-04-08T18:32:50.253Z,75.33
2023-04-08T18:35:23.616Z,76.44
2023-04-08T18:37:57.312Z,75.94
2023-04-08T18:40:31.542Z,76.95
2023-04-08T18:43:06.056Z,76.64
2023-04-08T18:45:38.997Z,75.56
2023-04-08T18:48:12.555Z,75.28
2023-04-08T18:50:45.894Z,76.62
2023-04-08T18:53:18.837Z,77.44
2023-04-08T18:55:52.473Z,77.44
2023-04-08T18:58:27.205Z,77.72
2023-04-08T19:01:00.264Z,79.42
2023-04-08T19:03:33.614Z,79.57
2023-04-08T19:06:07.514Z,79.44
2023-04-08T19:08:41.467Z,79.40
2023-04-08T19:11:14.660Z,78.03
2023-04-08T19:13:48.825Z,78.66
2023-04-08T19:16:21.749Z,78.84
2023-04-08T19:18:54.914Z,78.44
2023-04-08T19:21:30.856Z,78.88
2023-04-08T19:24:05.437Z,78.99
2023-04-08T19:26:38.353Z,79.28
2023-04-08T19:29:13.372Z,80.39
2023-04-08T19:31:46.878Z,80.52
2023-04-08T19:34:19.680Z,81.02
2023-04-08T19:36:52.832Z,81.02
2023-04-08T19:39:27.140Z,80.79
2023-04-08T19:42:02.401Z,81.07
2023-04-08T19:44:36.592Z,80.55
2023-04-08T19:47:09.724Z,79.94
2023-04-08T19:49:42.772Z,80.28
2023-04-08T19:52:16.826Z,79.76
2023-04-08T19:54:51.249Z,80.65
2023-04-08T19:57:24.974Z,80.35
2023-04-08T19:59:59.103Z,81.36
2023-04-08T20:02:32.185Z,81.48
2023-04-08T20:05:14.553Z,81.40
2023-04-08T20:07:47.360Z,81.19
2023-04-08T20:10:20.597Z,81.56
2023-04-08T20:12:53.870Z,81.39
2023-04-08T20:15:28.182Z,81.91
2023-04-08T20:18:00.988Z,80.92
2023-04-08T20:20:34.793Z,80.42
2023-04-08T20:23:07.622Z,80.95
2023-04-08T20:25:41.194Z,81.35
2023-04-08T20:28:14.300Z,80.65
2023-04-08T20:30:48.683Z,80.80
2023-04-08T20:33:21.519Z,81.24
2023-04-08T20:35:54.737Z,80.69
2023-04-08T20:38:28.297Z,81.29
2023-04-08T20:41:01.284Z,80.81
2023-04-08T20:43:34.048Z,81.36
2023-04-08T20:46:08.237Z,81.66
2023-04-08T20:48:44.412Z,81.54
2023-04-08T20:51:18.522Z,82.18
2023-04-08T20:53:51.323Z,82.45
2023-04-08T20:56:24.085Z,82.34
2023-04-08T20:58:59.700Z,82.20
2023-04-08T21:01:34.807Z,82.88
2023-04-08T21:04:07.594Z,83.37
2023-04-08T21:06:40.643Z,83.09
2023-04-08T21:09:14.920Z,82.84
2023-04-08T21:11:47.651Z,83.67
2023-04-08T21:14:20.900Z,83.66
2023-04-08T21:16:55.048Z,84.24
2023-04-08T21:19:27.883Z,84.13
2023-04-08T21:22:00.706Z,84.52
2023-04-08T21:24:34.121Z,84.39
2023-04-08T21:27:07.102Z,84.45
2023-04-08T21:29:42.074Z,84.69
2023-04-08T21:32:17.127Z,85.30
2023-04-08T21:34:53.168Z,85.55
2023-04-08T21:37:26.522Z,85.09
2023-04-08T21:39:59.723Z,85.07
2023-04-08T21:42:33.093Z,84.69
2023-04-08T21:45:07.519Z,85.50
2023-04-08T21:47:42.022Z,86.28
2023-04-08T21:50:15.364Z,86.23
2023-04-08T21:52:48.942Z,85.10
2023-04-08T21:55:22.159Z,85.22
2023-04-08T21:57:55.695Z,85.41
2023-04-08T22:00:28.827Z,85.89
2023-04-08T22:03:03.247Z,86.33
2023-04-08T22:05:37.212Z,86.24
2023-04-08T22:08:10.535Z,87.13
2023-04-08T22:10:44.139Z,87.17
2023-04-08T22:13:18.905Z,87.01
2023-04-08T22:15:52.109Z,86.45
2023-04-08T22:18:27.269Z,85.94
2023-04-08T22:21:00.644Z,86.19
2023-04-08T22:23:34.361Z,86.36
2023-04-08T22:26:07.478Z,86.18
2023-04-08T22:28:40.559Z,85.77
2023-04-08T22:31:14.106Z,86.02
2023-04-08T22:33:48.721Z,86.95
2023-04-08T22:36:22.204Z,86.59
2023-04-08T22:38:55.454Z,86.92
2023-04-08T22:41:28.510Z,87.33
2023-04-08T22:44:01.528Z,87.72
2023-04-08T22:46:35.386Z,86.85
2023-04-08T22:49:13.205Z,86.58
2023-04-08T22:51:46.334Z,86.13
2023-04-08T22:54:19.192Z,86.41
2023-04-08T22:56:52.010Z,87.00
2023-04-08T22:59:24.909Z,87.20
2023-04-08T23:01:57.785Z,86.73
2023-04-08T23:04:32.333Z,87.05
2023-04-08T23:07:05.899Z,86.62
2023-04-08T23:09:38.694Z,86.40
2023-04-08T23:12:11.473Z,87.00
2023-04-08T23:14:44.246Z,87.09
2023-04-08T23:17:17.176Z,86.94
2023-04-08T23:19:51.432Z,87.43
2023-04-08T23:22:25.106Z,86.66
2023-04-08T23:24:57.964Z,86.23
2023-04-08T23:27:31.583Z,86.73
2023-04-08T23:30:07.218Z,86.80
2023-04-08T23:32:40.097Z,86.91
2023-04-08T23:35:16.565Z,86.76
2023-04-08T23:37:49.346Z,87.24
2023-04-08T23:40:22.336Z,88.17
2023-04-08T23:42:55.328Z,87.84
2023-04-08T23:45:28.145Z,87.79
2023-04-08T23:48:01.272Z,88.30
2023-04-08T23:50:35.649Z,88.86
2023-04-08T23:53:08.563Z,89.15
2023-04-08T23:55:41.325Z,89.77
2023-04-08T23:58:14.400Z,89.72
